Time;durP1;ratioP1;P1;durP2;ratioP2;P2;SDS_P1;SDS_P2;PMS_P1;PMS_P2;Temp;Humidity;BMP_temperature;BMP_pressure;BME280_temperature;BME280_humidity;BME280_pressure;Samples;Min_cycle;Max_cycle;Signal;HPM_P1;HPM_P2
2021/10/18 00:02:03;;;;;;;;;10.00;7.25;;;;;20.83;42.96;101680.31;5011133;28;51058;-52
2021/10/18 00:04:28;;;;;;;;;11.50;9.50;;;;;20.81;43.19;101677.78;4998354;28;51025;-51
2021/10/18 00:06:54;;;;;;;;;11.00;9.25;;;;;20.81;42.87;101687.94;5010319;28;51792;-50
2021/10/18 00:09:20;;;;;;;;;9.75;8.50;;;;;20.81;43.10;101686.03;4988689;28;51147;-51
2021/10/18 00:11:46;;;;;;;;;7.50;7.50;;;;;20.81;43.41;101687.94;5015956;28;51075;-51
2021/10/18 00:14:11;;;;;;;;;9.75;8.75;;;;;20.79;43.02;101684.56;5015484;28;51176;-52
2021/10/18 00:16:38;;;;;;;;;9.75;8.25;;;;;20.80;43.22;101678.00;5010922;28;52072;-52
2021/10/18 00:19:03;;;;;;;;;9.00;7.50;;;;;20.79;43.32;101679.03;5001202;28;51445;-51
2021/10/18 00:21:29;;;;;;;;;10.25;10.00;;;;;20.80;42.89;101680.75;4996559;28;51229;-49
2021/10/18 00:23:54;;;;;;;;;9.00;9.00;;;;;20.79;43.07;101679.03;4998300;28;51099;-48
2021/10/18 00:26:19;;;;;;;;;12.00;10.00;;;;;20.79;42.82;101685.41;5000879;28;51157;-51
2021/10/18 00:28:45;;;;;;;;;7.50;6.75;;;;;20.79;43.34;101690.06;5006949;28;51140;-52
2021/10/18 00:31:10;;;;;;;;;9.00;7.75;;;;;20.79;43.22;101687.31;4996592;28;51181;-52
2021/10/18 00:33:35;;;;;;;;;8.00;8.00;;;;;20.78;42.79;101685.59;4997767;28;51174;-50
2021/10/18 00:36:01;;;;;;;;;8.00;6.00;;;;;20.78;42.79;101685.59;4996565;28;51014;-51
2021/10/18 00:38:26;;;;;;;;;11.00;11.00;;;;;20.78;42.97;101685.59;5005198;28;51275;-50
2021/10/18 00:40:52;;;;;;;;;10.25;8.00;;;;;20.78;43.00;101674.59;5014359;28;51026;-51
2021/10/18 00:43:17;;;;;;;;;9.75;8.00;;;;;20.76;42.98;101677.56;5010395;28;51226;-52
2021/10/18 00:45:43;;;;;;;;;10.00;10.00;;;;;20.75;42.92;101679.47;5015192;28;50943;-48
2021/10/18 00:48:08;;;;;;;;;7.00;7.00;;;;;20.75;43.11;101684.97;5003683;28;51211;-49
2021/10/18 00:50:34;;;;;;;;;10.00;7.00;;;;;20.75;43.25;101689.63;4996661;28;51181;-48
2021/10/18 00:53:00;;;;;;;;;8.50;8.50;;;;;20.74;43.22;101691.53;4997475;28;51382;-51
2021/10/18 00:55:25;;;;;;;;;8.25;7.00;;;;;20.74;43.01;101693.44;4996293;28;51947;-52
2021/10/18 00:57:52;;;;;;;;;7.50;6.25;;;;;20.74;43.52;101696.19;5008774;28;50884;-51
2021/10/18 01:00:17;;;;;;;;;7.25;7.00;;;;;20.73;43.28;101697.22;5015828;28;51156;-48
2021/10/18 01:02:43;;;;;;;;;8.25;8.25;;;;;20.72;43.47;101701.88;5014078;28;51243;-50
2021/10/18 01:05:09;;;;;;;;;8.75;7.75;;;;;20.73;43.47;101697.22;5015560;28;51335;-51
2021/10/18 01:07:35;;;;;;;;;9.00;9.00;;;;;20.72;43.16;101698.28;5001428;28;51027;-51
2021/10/18 01:10:00;;;;;;;;;7.50;7.00;;;;;20.73;43.34;101702.72;5013151;28;51303;-51
2021/10/18 01:12:26;;;;;;;;;10.50;8.00;;;;;20.72;43.05;101699.13;5015957;28;51362;-51
2021/10/18 01:14:52;;;;;;;;;7.75;7.00;;;;;20.73;42.86;101697.22;4997236;28;53510;-50
2021/10/18 01:17:17;;;;;;;;;7.50;7.50;;;;;20.71;43.13;101694.66;5012731;28;50941;-51
2021/10/18 01:19:43;;;;;;;;;8.50;8.50;;;;;20.71;42.92;101699.34;5015190;28;51195;-52
2021/10/18 01:22:08;;;;;;;;;9.50;8.00;;;;;20.70;43.28;101703.13;5015168;28;51726;-50
2021/10/18 01:24:35;;;;;;;;;8.25;6.00;;;;;20.70;43.21;101692.13;5015051;28;51704;-48
2021/10/18 01:27:03;;;;;;;;;7.75;6.75;;;;;20.70;43.36;101698.47;5007080;28;51125;-52
2021/10/18 01:29:30;;;;;;;;;9.00;7.25;;;;;20.70;43.26;101701.22;4999538;28;51165;-49
2021/10/18 01:31:56;;;;;;;;;9.75;7.00;;;;;20.70;43.39;101689.38;5015355;28;51362;-52
2021/10/18 01:34:21;;;;;;;;;11.75;9.25;;;;;20.70;43.10;101690.22;5014407;28;51013;-50
2021/10/18 01:36:47;;;;;;;;;7.75;7.75;;;;;20.70;43.54;101694.88;5013179;28;51106;-50
2021/10/18 01:39:13;;;;;;;;;10.50;7.00;;;;;20.69;43.40;101691.28;5015030;28;51103;-52
2021/10/18 01:41:38;;;;;;;;;8.75;8.75;;;;;20.70;43.10;101697.63;5014960;28;50963;-52
2021/10/18 01:44:04;;;;;;;;;9.50;9.50;;;;;20.69;42.86;101691.28;5014608;28;51050;-52
2021/10/18 01:46:29;;;;;;;;;8.50;8.00;;;;;20.69;43.17;101691.28;5013391;28;51124;-52
2021/10/18 01:48:54;;;;;;;;;7.00;7.00;;;;;20.69;43.08;101684.91;5015035;28;51213;-51
2021/10/18 01:51:20;;;;;;;;;7.50;7.00;;;;;20.69;43.48;101683.03;5014841;28;51309;-51
2021/10/18 01:53:45;;;;;;;;;9.75;8.00;;;;;20.69;43.47;101674.75;5014612;28;51005;-52
2021/10/18 01:56:10;;;;;;;;;8.00;8.00;;;;;20.69;43.43;101682.16;5014399;28;51028;-51
2021/10/18 01:58:36;;;;;;;;;10.25;8.75;;;;;20.67;43.14;101673.28;5018707;28;51042;-51
2021/10/18 02:01:03;;;;;;;;;8.50;7.00;;;;;20.67;43.16;101670.53;5018407;28;51062;-52
2021/10/18 02:03:29;;;;;;;;;8.00;8.00;;;;;20.66;43.44;101669.66;5004617;28;51181;-51
2021/10/18 02:05:55;;;;;;;;;9.00;8.00;;;;;20.66;43.24;101661.41;5014300;28;51200;-49
2021/10/18 02:08:20;;;;;;;;;9.50;4.75;;;;;20.66;43.28;101675.19;5017915;28;52129;-53
2021/10/18 02:10:46;;;;;;;;;10.50;7.00;;;;;20.66;43.15;101677.09;5018184;28;51086;-49
2021/10/18 02:13:12;;;;;;;;;7.50;7.00;;;;;20.66;43.50;101675.19;5018210;28;51025;-48
2021/10/18 02:15:37;;;;;;;;;7.00;7.00;;;;;20.66;43.49;101679.84;5016651;28;51137;-49
2021/10/18 02:18:03;;;;;;;;;9.75;9.50;;;;;20.65;43.30;101662.47;5018009;28;51226;-51
2021/10/18 02:20:29;;;;;;;;;8.50;8.50;;;;;20.65;43.42;101667.97;5018251;28;51307;-48
2021/10/18 02:22:54;;;;;;;;;8.50;7.00;;;;;20.63;43.45;101670.06;5017306;28;51036;-47
2021/10/18 02:25:20;;;;;;;;;7.75;7.75;;;;;20.64;43.44;101673.69;5016610;28;51112;-53
2021/10/18 02:27:46;;;;;;;;;6.75;6.00;;;;;20.63;43.45;101670.06;5002381;28;51759;-53
2021/10/18 02:30:12;;;;;;;;;7.00;6.25;;;;;20.63;43.59;101670.06;5006261;28;51237;-50
2021/10/18 02:32:38;;;;;;;;;7.00;7.00;;;;;20.63;43.52;101670.06;5017358;28;51574;-53
2021/10/18 02:35:05;;;;;;;;;6.50;6.50;;;;;20.63;43.56;101666.47;5016542;28;51190;-51
2021/10/18 02:37:30;;;;;;;;;6.75;6.75;;;;;20.63;43.23;101652.69;5017711;28;51134;-49
2021/10/18 02:39:56;;;;;;;;;8.25;7.00;;;;;20.63;43.15;101663.69;5017782;28;51357;-49
2021/10/18 02:42:21;;;;;;;;;6.50;6.50;;;;;20.62;43.38;101657.34;5017714;28;51011;-50
2021/10/18 02:44:47;;;;;;;;;7.75;6.25;;;;;20.63;43.09;101655.44;5016042;28;51037;-50
2021/10/18 02:47:13;;;;;;;;;9.00;7.00;;;;;20.62;43.41;101660.09;5017745;28;51157;-51
2021/10/18 02:49:38;;;;;;;;;8.25;8.25;;;;;20.61;43.21;101655.66;5017429;28;51082;-51
2021/10/18 02:52:04;;;;;;;;;8.25;7.25;;;;;20.62;43.26;101660.09;5017304;28;51891;-52
2021/10/18 02:54:29;;;;;;;;;8.75;8.00;;;;;20.61;43.44;101650.16;5015782;28;51141;-50
2021/10/18 02:56:55;;;;;;;;;7.75;6.25;;;;;20.62;43.23;101649.09;5017544;28;51067;-52
2021/10/18 02:59:20;;;;;;;;;7.00;6.25;;;;;20.60;43.23;101648.44;5006358;28;50927;-52
2021/10/18 03:01:46;;;;;;;;;5.75;5.75;;;;;20.60;43.19;101645.69;4997791;28;52791;-53
2021/10/18 03:04:11;;;;;;;;;8.50;6.75;;;;;20.60;43.39;101631.09;4999167;28;51024;-50
2021/10/18 03:06:36;;;;;;;;;10.25;9.00;;;;;20.59;43.30;101626.63;4997797;28;51193;-48
2021/10/18 03:09:02;;;;;;;;;8.25;7.00;;;;;20.59;43.33;101638.50;4998558;28;51094;-50
2021/10/18 03:11:27;;;;;;;;;8.50;8.50;;;;;20.60;43.30;101633.84;5014284;28;51767;-52
2021/10/18 03:13:53;;;;;;;;;5.50;5.50;;;;;20.59;43.50;101635.75;4999031;28;51126;-52
2021/10/18 03:16:18;;;;;;;;;9.25;6.50;;;;;20.59;43.40;101632.16;4998164;28;51244;-49
2021/10/18 03:18:43;;;;;;;;;5.50;5.50;;;;;20.59;43.13;101630.22;4998103;28;51211;-53
2021/10/18 03:21:09;;;;;;;;;6.75;6.25;;;;;20.59;43.01;101630.22;4998000;28;51176;-51
2021/10/18 03:23:34;;;;;;;;;8.00;6.75;;;;;20.59;43.45;101633.00;4998268;28;51105;-52
2021/10/18 03:25:59;;;;;;;;;7.25;5.00;;;;;20.58;43.11;101636.81;4999547;28;51444;-50
2021/10/18 03:28:25;;;;;;;;;9.00;6.00;;;;;20.59;43.22;101643.16;5010165;28;51234;-46
2021/10/18 03:30:50;;;;;;;;;5.50;5.00;;;;;20.57;43.44;101637.84;4998536;28;51608;-50
2021/10/18 03:33:16;;;;;;;;;8.50;7.25;;;;;20.57;43.35;101643.38;4997910;28;51212;-54
2021/10/18 03:35:42;;;;;;;;;5.00;5.00;;;;;20.58;43.79;101650.56;4997813;28;51056;-50
2021/10/18 03:38:07;;;;;;;;;5.25;5.25;;;;;20.57;43.39;101637.84;4997554;28;51291;-50
2021/10/18 03:40:33;;;;;;;;;7.25;7.25;;;;;20.57;43.03;101643.38;4998724;28;51690;-50
2021/10/18 03:42:58;;;;;;;;;7.75;6.25;;;;;20.57;43.24;101643.38;4997556;28;51087;-49
2021/10/18 03:45:23;;;;;;;;;6.75;6.00;;;;;20.57;43.50;101642.50;4997769;28;51070;-50
2021/10/18 03:47:49;;;;;;;;;8.25;7.00;;;;;20.56;42.97;101646.31;4997337;28;51083;-54
2021/10/18 03:50:15;;;;;;;;;6.50;6.25;;;;;20.55;43.17;101644.63;4998370;28;51801;-51
2021/10/18 03:52:42;;;;;;;;;8.50;6.75;;;;;20.56;43.55;101658.19;4997024;28;51484;-52
2021/10/18 03:55:08;;;;;;;;;6.00;6.00;;;;;20.55;43.05;101650.97;4997299;28;51086;-51
2021/10/18 03:57:33;;;;;;;;;6.50;5.25;;;;;20.55;43.21;101650.97;4997646;28;50968;-53
2021/10/18 03:59:59;;;;;;;;;6.50;6.50;;;;;20.54;43.33;101657.53;4980337;28;52189;-51
2021/10/18 04:02:24;;;;;;;;;11.00;8.75;;;;;20.55;43.50;101656.47;4997407;28;51182;-53
2021/10/18 04:04:49;;;;;;;;;6.25;6.00;;;;;20.55;43.33;101655.63;4997018;28;51297;-51
2021/10/18 04:07:15;;;;;;;;;5.00;5.00;;;;;20.54;43.43;101656.69;4997491;28;51185;-50
2021/10/18 04:09:40;;;;;;;;;9.25;6.75;;;;;20.55;43.13;101664.75;4998126;28;51122;-49
2021/10/18 04:12:06;;;;;;;;;5.25;4.25;;;;;20.54;43.30;101663.03;4996998;28;51124;-48
2021/10/18 04:14:32;;;;;;;;;8.50;7.00;;;;;20.55;43.26;101666.66;4997256;28;51051;-51
2021/10/18 04:16:57;;;;;;;;;8.75;6.00;;;;;20.53;43.47;101664.09;4997312;28;51233;-49
2021/10/18 04:19:23;;;;;;;;;7.50;6.50;;;;;20.53;43.43;101666.84;4997266;28;51378;-50
2021/10/18 04:21:48;;;;;;;;;7.00;6.25;;;;;20.54;43.62;101665.78;4996666;28;50893;-48
2021/10/18 04:24:13;;;;;;;;;6.25;3.00;;;;;20.53;43.27;101669.59;4997047;28;51164;-48
2021/10/18 04:26:40;;;;;;;;;7.75;6.25;;;;;20.54;43.56;101674.06;5004012;28;51303;-49
2021/10/18 04:29:06;;;;;;;;;5.50;5.50;;;;;20.54;43.37;101678.72;5014313;28;51718;-51
2021/10/18 04:31:32;;;;;;;;;7.25;5.00;;;;;20.54;43.36;101675.97;5016248;28;51183;-48
2021/10/18 04:33:59;;;;;;;;;7.25;7.25;;;;;20.54;43.22;101675.97;5006057;28;51157;-53
2021/10/18 04:36:25;;;;;;;;;9.25;7.00;;;;;20.54;43.29;101681.47;4996698;28;51099;-50
2021/10/18 04:38:50;;;;;;;;;7.00;6.25;;;;;20.52;43.24;101684.38;5003850;28;51890;-51
2021/10/18 04:41:15;;;;;;;;;8.50;6.75;;;;;20.53;43.53;101690.75;5015710;28;51054;-51
2021/10/18 04:43:41;;;;;;;;;7.00;7.00;;;;;20.51;43.09;101693.69;4998854;28;51397;-49
2021/10/18 04:46:06;;;;;;;;;5.50;5.50;;;;;20.52;43.75;101692.66;4998841;28;51088;-51
2021/10/18 04:48:32;;;;;;;;;8.50;6.25;;;;;20.52;43.05;101686.28;5002545;28;51216;-51
2021/10/18 04:50:57;;;;;;;;;7.00;7.00;;;;;20.51;43.52;101690.09;5006495;28;51050;-49
2021/10/18 04:53:22;;;;;;;;;8.00;6.50;;;;;20.51;43.31;101690.94;4996083;28;51139;-48
2021/10/18 04:55:47;;;;;;;;;7.50;7.50;;;;;20.51;43.47;101692.84;4996682;28;51298;-52
2021/10/18 04:58:13;;;;;;;;;7.00;6.00;;;;;20.50;43.22;101692.00;4999221;28;51205;-47
2021/10/18 05:00:43;;;;;;;;;9.25;7.50;;;;;20.52;42.98;101694.56;5009265;28;50921;-48
2021/10/18 05:03:08;;;;;;;;;4.75;4.75;;;;;20.51;43.30;101701.97;5004492;28;51078;-51
2021/10/18 05:05:34;;;;;;;;;7.75;7.25;;;;;20.50;43.47;101707.66;4996619;28;50988;-50
2021/10/18 05:08:05;;;;;;;;;6.00;6.00;;;;;20.50;43.16;101713.19;4995816;28;51804;-49
2021/10/18 05:10:32;;;;;;;;;7.25;6.75;;;;;20.50;43.04;101710.41;5005348;28;51508;-49
2021/10/18 05:12:58;;;;;;;;;5.75;5.75;;;;;20.49;43.28;101728.84;5014035;28;51186;-50
2021/10/18 05:15:23;;;;;;;;;10.75;7.75;;;;;20.49;43.17;101725.25;5015720;28;51185;-51
2021/10/18 05:17:48;;;;;;;;;14.75;13.50;;;;;20.49;42.79;101726.09;5015085;28;51653;-50
2021/10/18 05:20:14;;;;;;;;;15.00;11.25;;;;;20.46;41.99;101730.09;5004312;28;51108;-49
2021/10/18 05:22:39;;;;;;;;;27.00;18.25;;;;;20.43;41.75;101729.66;4996866;28;51179;-50
2021/10/18 05:25:05;;;;;;;;;19.50;16.25;;;;;20.38;41.76;101726.63;4996182;28;51124;-51
2021/10/18 05:27:30;;;;;;;;;17.75;17.00;;;;;20.32;41.26;101728.28;5008905;28;51912;-50
2021/10/18 05:29:56;;;;;;;;;19.25;15.75;;;;;20.28;41.14;101721.47;5005995;28;51172;-51
2021/10/18 05:32:21;;;;;;;;;18.00;17.50;;;;;20.24;40.87;101722.06;5012735;28;51086;-48
2021/10/18 05:34:46;;;;;;;;;17.50;17.25;;;;;20.19;41.20;101722.66;5014938;28;51203;-48
2021/10/18 05:37:12;;;;;;;;;19.25;17.00;;;;;20.16;41.09;101728.56;5014771;28;51962;-51
2021/10/18 05:39:37;;;;;;;;;15.75;13.50;;;;;20.13;41.23;101717.97;5006160;28;51393;-52
2021/10/18 05:42:03;;;;;;;;;13.00;11.50;;;;;20.14;41.22;101715.00;4996301;28;51288;-50
2021/10/18 05:44:28;;;;;;;;;14.25;13.50;;;;;20.22;41.51;101710.38;4995642;28;50965;-52
2021/10/18 05:46:53;;;;;;;;;12.25;11.50;;;;;20.29;41.14;101708.56;4995799;28;51946;-53
2021/10/18 05:49:19;;;;;;;;;16.00;13.25;;;;;20.35;41.54;101716.03;4996881;28;51225;-53
2021/10/18 05:51:44;;;;;;;;;13.00;12.00;;;;;20.44;41.24;101717.59;4995557;28;51158;-51
2021/10/18 05:54:10;;;;;;;;;9.00;9.00;;;;;20.52;41.49;101702.81;4995728;28;51246;-50
2021/10/18 05:56:35;;;;;;;;;12.00;12.00;;;;;20.60;41.69;101709.00;4995243;28;51623;-51
2021/10/18 05:59:00;;;;;;;;;13.00;9.00;;;;;20.68;41.61;101714.38;4995663;28;51095;-51
2021/10/18 06:01:26;;;;;;;;;9.25;9.25;;;;;20.75;41.45;101715.25;5010746;28;51141;-53
2021/10/18 06:03:51;;;;;;;;;13.25;10.75;;;;;20.85;41.26;101716.78;5014261;28;50892;-53
2021/10/18 06:06:17;;;;;;;;;14.50;11.00;;;;;20.92;41.54;101723.16;5014350;28;51851;-52
2021/10/18 06:08:43;;;;;;;;;8.50;8.00;;;;;20.98;41.32;101720.47;5014561;28;51199;-52
2021/10/18 06:11:09;;;;;;;;;11.25;9.50;;;;;21.07;41.29;101731.31;5013163;28;51202;-51
2021/10/18 06:13:35;;;;;;;;;6.75;5.75;;;;;21.12;41.18;101737.03;4995708;28;51308;-51
2021/10/18 06:16:00;;;;;;;;;7.50;7.50;;;;;21.20;41.64;101736.88;4995264;28;51107;-51
2021/10/18 06:18:25;;;;;;;;;7.50;7.25;;;;;21.26;41.64;101741.59;4995648;28;51099;-52
2021/10/18 06:20:53;;;;;;;;;7.75;7.00;;;;;21.32;41.17;101741.59;4997375;28;52449;-54
2021/10/18 06:23:21;;;;;;;;;7.75;7.75;;;;;21.38;41.07;101733.59;5014693;28;51149;-55
2021/10/18 06:25:47;;;;;;;;;11.00;6.50;;;;;21.44;40.98;101738.25;4995099;28;51277;-52
2021/10/18 06:28:13;;;;;;;;;9.00;8.25;;;;;21.48;41.02;101734.03;5002968;28;51286;-50
2021/10/18 06:30:40;;;;;;;;;13.25;10.75;;;;;21.53;41.14;101742.53;4996667;28;51198;-52
2021/10/18 06:33:05;;;;;;;;;9.25;7.25;;;;;21.54;41.35;101742.31;5012188;28;51207;-54
2021/10/18 06:35:35;;;;;;;;;8.75;6.00;;;;;21.53;41.52;101742.53;5009094;28;51712;-52
2021/10/18 06:38:01;;;;;;;;;11.25;10.75;;;;;21.50;41.07;101741.03;4996188;28;51036;-54
2021/10/18 06:40:27;;;;;;;;;9.00;7.75;;;;;21.48;41.08;101739.56;5012542;28;51426;-54
2021/10/18 06:42:53;;;;;;;;;8.25;8.25;;;;;21.44;41.13;101744.59;4997130;28;51151;-53
2021/10/18 06:45:19;;;;;;;;;9.75;8.50;;;;;21.39;41.67;101743.56;5017404;28;51025;-54
2021/10/18 06:47:47;;;;;;;;;9.75;9.00;;;;;21.37;41.67;101742.91;5016108;28;51145;-55
2021/10/18 06:50:12;;;;;;;;;10.00;9.00;;;;;21.33;41.38;101747.97;4998162;28;51195;-55
2021/10/18 06:52:41;;;;;;;;;8.00;8.00;;;;;21.27;41.29;101752.41;5002485;28;51312;-54
2021/10/18 06:55:09;;;;;;;;;11.50;10.00;;;;;21.25;41.17;101751.72;5013273;28;52991;-54
2021/10/18 06:57:35;;;;;;;;;12.00;8.25;;;;;21.26;41.14;101756.22;5013468;28;51164;-54
2021/10/18 07:00:00;;;;;;;;;11.25;10.50;;;;;21.30;41.54;101751.16;5011101;28;51404;-54
2021/10/18 07:02:26;;;;;;;;;10.50;7.00;;;;;21.36;41.80;101754.97;5013363;28;51197;-54
2021/10/18 07:04:53;;;;;;;;;9.00;9.00;;;;;21.43;41.13;101753.09;5010051;28;51119;-53
2021/10/18 07:07:19;;;;;;;;;8.75;8.00;;;;;21.49;41.17;101757.78;5007744;28;51423;-55
2021/10/18 07:09:44;;;;;;;;;8.25;7.25;;;;;21.53;41.01;101762.66;5005194;28;51175;-55
2021/10/18 07:12:10;;;;;;;;;12.67;9.00;;;;;21.54;40.81;101766.28;4996563;28;50972;-56
2021/10/18 07:14:36;;;;;;;;;12.00;10.00;;;;;21.52;40.84;101768.38;5009616;28;51035;-53
2021/10/18 07:17:02;;;;;;;;;9.25;9.00;;;;;21.51;41.45;101761.19;5005795;28;51165;-55
2021/10/18 07:19:27;;;;;;;;;9.75;9.00;;;;;21.48;41.31;101762.44;5001398;28;51186;-54
2021/10/18 07:21:53;;;;;;;;;9.00;7.00;;;;;21.47;41.40;101769.03;4996848;28;51115;-54
2021/10/18 07:24:18;;;;;;;;;10.50;9.25;;;;;21.44;41.45;101765.81;5003573;28;52821;-55
2021/10/18 07:26:48;;;;;;;;;8.00;8.00;;;;;21.41;40.97;101760.72;5003650;28;51103;-53
2021/10/18 07:29:14;;;;;;;;;8.50;8.50;;;;;21.38;41.39;101763.91;5005107;28;51302;-56
2021/10/18 07:31:41;;;;;;;;;8.50;7.00;;;;;21.36;41.20;101766.84;5003054;28;50976;-56
2021/10/18 07:34:12;;;;;;;;;7.50;6.25;;;;;21.33;41.42;101757.09;5000354;28;51990;-53
2021/10/18 07:36:45;;;;;;;;;14.75;10.00;;;;;21.31;41.33;101764.72;5014106;28;51376;-54
2021/10/18 07:39:11;;;;;;;;;10.00;10.00;;;;;21.29;41.66;101763.22;5003473;28;51219;-55
2021/10/18 07:41:36;;;;;;;;;12.00;7.25;;;;;21.24;41.31;101769.31;5005286;28;51442;-55
2021/10/18 07:44:01;;;;;;;;;7.75;7.75;;;;;21.22;41.34;101767.81;5015057;28;51869;-54
2021/10/18 07:46:27;;;;;;;;;11.50;9.00;;;;;21.19;41.21;101769.09;5012305;28;52316;-55
2021/10/18 07:48:52;;;;;;;;;14.50;10.25;;;;;21.18;41.35;101761.03;5004920;28;51078;-55
2021/10/18 07:51:18;;;;;;;;;9.75;8.75;;;;;21.15;41.94;101748.47;5004717;28;51315;-54
2021/10/18 07:53:43;;;;;;;;;8.25;8.25;;;;;21.14;41.92;101755.06;5008747;28;51816;-55
2021/10/18 07:56:08;;;;;;;;;8.00;7.25;;;;;21.12;41.80;101759.06;5005869;28;51138;-52
2021/10/18 07:58:34;;;;;;;;;10.75;8.75;;;;;21.14;42.03;101766.06;5013906;28;51075;-53
2021/10/18 08:00:59;;;;;;;;;10.50;10.50;;;;;21.18;41.66;101761.03;5002290;28;51291;-53
2021/10/18 08:03:24;;;;;;;;;17.25;11.75;;;;;21.22;41.97;101765.06;4995340;28;51004;-54
2021/10/18 08:05:50;;;;;;;;;12.50;12.00;;;;;21.28;42.23;101772.56;4997168;28;51207;-53
2021/10/18 08:08:21;;;;;;;;;12.75;11.50;;;;;21.40;42.45;101776.41;4997188;28;51135;-51
2021/10/18 08:10:46;;;;;;;;;15.25;14.00;;;;;21.57;42.28;101782.38;5008133;28;51138;-53
2021/10/18 08:13:12;;;;;;;;;16.25;16.25;;;;;21.63;41.61;101778.81;5014995;28;51508;-53
2021/10/18 08:15:37;;;;;;;;;17.50;15.50;;;;;21.68;42.06;101776.31;5013512;28;51085;-55
2021/10/18 08:18:02;;;;;;;;;19.00;16.50;;;;;21.72;41.85;101780.34;5015296;28;51253;-55
2021/10/18 08:20:28;;;;;;;;;16.75;16.25;;;;;21.72;41.86;101776.72;5009131;28;51217;-54
2021/10/18 08:22:53;;;;;;;;;17.25;15.25;;;;;21.71;41.37;101781.41;5001775;28;51394;-55
2021/10/18 08:25:19;;;;;;;;;17.75;16.25;;;;;21.71;41.44;101791.56;5002738;28;51078;-55
2021/10/18 08:27:45;;;;;;;;;18.50;16.75;;;;;21.67;42.00;101793.88;4999283;28;51109;-56
2021/10/18 08:30:11;;;;;;;;;18.75;18.25;;;;;21.66;41.59;101802.34;5008873;28;51346;-53
2021/10/18 08:32:37;;;;;;;;;49.75;33.00;;;;;21.63;42.18;101800.88;5005327;28;52049;-54
2021/10/18 08:35:03;;;;;;;;;49.50;32.00;;;;;21.62;42.41;101807.44;5005933;28;50908;-55
2021/10/18 08:40:13;;;;;;;;;27.25;17.75;;;;;21.59;42.35;101802.34;5004859;28;51308;-54
2021/10/18 08:42:45;;;;;;;;;26.25;20.75;;;;;21.58;41.87;101792.38;5007221;28;52384;-52
2021/10/18 08:45:10;;;;;;;;;26.50;20.00;;;;;21.56;42.19;101787.06;5011026;28;51391;-52
2021/10/18 08:47:37;;;;;;;;;28.00;18.00;;;;;21.53;41.83;101783.88;5011772;28;51096;-54
2021/10/18 08:50:05;;;;;;;;;22.25;16.25;;;;;21.51;42.15;101774.97;5006059;28;51199;-52
2021/10/18 08:52:32;;;;;;;;;19.25;12.75;;;;;21.50;41.64;101782.38;5002751;28;51201;-51
2021/10/18 08:54:57;;;;;;;;;19.25;13.50;;;;;21.49;42.20;101777.09;4997393;28;51110;-54
2021/10/18 08:57:22;;;;;;;;;18.00;14.75;;;;;21.46;42.29;101780.22;5003637;28;51181;-52
2021/10/18 08:59:48;;;;;;;;;16.25;11.75;;;;;21.45;42.01;101779.38;5002297;28;51372;-54
2021/10/18 09:02:13;;;;;;;;;18.00;12.00;;;;;21.42;42.07;101766.03;5012012;28;51007;-53
2021/10/18 09:04:40;;;;;;;;;17.25;13.75;;;;;21.42;42.01;101766.03;5001857;28;51075;-53
2021/10/18 09:07:17;;;;;;;;;13.50;8.75;;;;;21.39;41.97;101773.88;4994831;28;51106;-53
2021/10/18 09:09:48;;;;;;;;;11.75;10.75;;;;;21.38;41.64;101777.69;5003468;28;51391;-52
2021/10/18 09:12:31;;;;;;;;;19.25;13.00;;;;;21.36;42.06;101771.50;5013677;28;53102;-53
2021/10/18 09:15:17;;;;;;;;;12.50;12.50;;;;;21.33;42.00;101762.59;5005961;28;51416;-49
2021/10/18 09:17:42;;;;;;;;;13.25;10.75;;;;;21.30;41.97;101757.50;4988548;28;51337;-52
2021/10/18 09:20:36;;;;;;;;;13.25;9.25;;;;;21.31;41.97;101761.09;5011879;28;51135;-53
2021/10/18 09:23:37;;;;;;;;;14.75;10.50;;;;;21.28;41.69;101758.78;5003903;28;51100;-53
2021/10/18 09:26:08;;;;;;;;;11.50;9.00;;;;;21.26;41.56;101747.97;5011892;28;51535;-53
2021/10/18 09:28:34;;;;;;;;;11.25;7.75;;;;;21.24;41.87;101751.91;5001751;28;50983;-51
2021/10/18 09:31:00;;;;;;;;;12.75;11.00;;;;;21.23;41.97;101758.50;5012400;28;51255;-53
2021/10/18 09:36:01;;;;;;;;;10.00;9.25;;;;;21.20;42.00;101765.28;4994767;28;51356;-51
2021/10/18 09:38:27;;;;;;;;;10.50;10.00;;;;;21.19;41.92;101760.81;4999184;28;51172;-54
2021/10/18 09:40:59;;;;;;;;;10.00;9.00;;;;;21.17;42.17;101768.44;5004058;28;51125;-54
2021/10/18 09:43:38;;;;;;;;;11.50;8.75;;;;;21.17;42.14;101754.66;5010386;28;51878;-54
2021/10/18 10:54:07;;;;;;;;;10.00;10.00;;;;;21.06;41.90;101762.66;5014040;28;51348;-56
2021/10/18 10:56:43;;;;;;;;;14.75;11.50;;;;;21.07;42.30;101762.47;5000552;28;51141;-54
2021/10/18 10:59:25;;;;;;;;;12.75;11.75;;;;;21.11;42.56;101754.63;4997311;28;51189;-49
2021/10/18 11:01:50;;;;;;;;;17.00;12.75;;;;;21.11;42.28;101749.97;4997117;28;52262;-53
2021/10/18 11:04:30;;;;;;;;;13.00;12.00;;;;;21.15;42.14;101739.38;4996414;28;51097;-54
2021/10/18 11:07:07;;;;;;;;;13.75;11.00;;;;;21.17;42.11;101731.78;4996251;28;51126;-52
2021/10/18 11:09:42;;;;;;;;;15.75;15.00;;;;;21.19;42.63;101732.41;4996120;28;51092;-54
2021/10/18 11:12:18;;;;;;;;;12.00;11.25;;;;;21.20;42.58;101725.84;5004831;28;51228;-54
2021/10/18 11:14:54;;;;;;;;;15.00;12.25;;;;;21.23;42.33;101728.19;5015918;28;51212;-54
2021/10/18 11:17:20;;;;;;;;;12.00;11.50;;;;;21.23;42.12;101729.03;5016778;28;51044;-52
2021/10/18 11:19:56;;;;;;;;;12.75;10.75;;;;;21.24;42.91;101730.72;5016039;28;51157;-53
2021/10/18 11:22:34;;;;;;;;;14.00;12.75;;;;;21.25;42.23;101735.19;5012888;28;51090;-54
2021/10/18 11:25:01;;;;;;;;;14.75;12.25;;;;;21.26;42.71;101727.81;4996986;28;51086;-54
2021/10/18 11:27:33;;;;;;;;;11.00;10.00;;;;;21.26;42.58;101731.44;5009412;28;51116;-54
2021/10/18 11:30:04;;;;;;;;;13.00;11.50;;;;;21.27;42.49;101738.63;5005003;28;51245;-54
2021/10/18 11:32:31;;;;;;;;;17.00;13.50;;;;;21.28;42.68;101740.34;5003841;28;52063;-53
2021/10/18 11:35:08;;;;;;;;;14.25;11.25;;;;;21.28;42.76;101732.06;5011387;28;51108;-54
2021/10/18 11:37:56;;;;;;;;;13.00;9.50;;;;;21.29;42.85;101725.50;5010071;28;51127;-53
2021/10/18 11:40:38;;;;;;;;;14.75;13.50;;;;;21.29;42.36;101724.66;5014517;28;51214;-53
2021/10/18 11:43:06;;;;;;;;;14.75;12.50;;;;;21.30;42.52;101721.69;5001412;28;52141;-53
2021/10/18 11:45:35;;;;;;;;;18.75;15.50;;;;;21.31;42.88;101725.28;5013433;28;51575;-53
2021/10/18 11:48:12;;;;;;;;;14.25;11.00;;;;;21.31;42.88;101719.78;5011825;28;51027;-54
2021/10/18 11:50:39;;;;;;;;;12.75;11.50;;;;;21.31;42.92;101717.00;5000548;28;52472;-54
2021/10/18 11:53:10;;;;;;;;;14.00;9.75;;;;;21.32;42.84;101693.91;4997261;28;51740;-54
2021/10/18 11:55:39;;;;;;;;;14.00;11.50;;;;;21.32;43.06;101696.66;5000312;28;51328;-51
2021/10/18 11:58:06;;;;;;;;;13.00;11.25;;;;;21.32;42.44;101680.97;5010710;28;50967;-53
2021/10/18 12:00:41;;;;;;;;;13.00;11.50;;;;;21.33;42.94;101668.03;5005335;28;51185;-53
2021/10/18 12:03:11;;;;;;;;;8.25;6.75;;;;;21.33;42.46;101681.81;5001180;28;51105;-54
2021/10/18 12:05:39;;;;;;;;;14.75;10.50;;;;;21.31;42.53;101678.44;5000379;28;51256;-55
2021/10/18 12:08:06;;;;;;;;;16.00;12.50;;;;;21.33;42.65;101681.81;5006535;28;51316;-55
2021/10/18 12:10:33;;;;;;;;;13.75;10.50;;;;;21.33;42.99;101668.03;4995502;28;51079;-54
2021/10/18 12:13:07;;;;;;;;;13.50;11.50;;;;;21.33;43.05;101649.59;4999501;28;51957;-54
2021/10/18 12:15:37;;;;;;;;;12.75;11.00;;;;;21.33;42.74;101660.63;5001974;28;51207;-54
2021/10/18 12:18:02;;;;;;;;;14.50;11.00;;;;;21.33;42.71;101657.03;5001327;28;51327;-53
2021/10/18 12:20:28;;;;;;;;;12.25;11.75;;;;;21.34;42.76;101669.75;5014656;28;50998;-54
2021/10/18 12:23:07;;;;;;;;;15.50;11.25;;;;;21.36;43.19;101669.53;5008664;28;51736;-54
2021/10/18 12:25:37;;;;;;;;;15.50;12.75;;;;;21.35;42.69;101657.66;4996554;28;51148;-54
2021/10/18 12:28:25;;;;;;;;;15.75;11.50;;;;;21.36;42.73;101648.31;5010244;28;51172;-54
2021/10/18 12:30:51;;;;;;;;;16.25;12.25;;;;;21.35;43.01;101635.59;5007922;28;50999;-54
2021/10/18 12:33:16;;;;;;;;;12.25;12.25;;;;;21.37;42.71;101627.16;5011829;28;51795;-54